Time;durP1;ratioP1;P1;durP2;ratioP2;P2;SDS_P1;SDS_P2;PMS_P1;PMS_P2;Temp;Humidity;BMP_temperature;BMP_pressure;BME280_temperature;BME280_humidity;BME280_pressure;Samples;Min_cycle;Max_cycle;Signal;HPM_P1;HPM_P2
2022/09/04 00:02:27;;;;;;;4.60;2.30;;;17.40;95.10;;;;;;4792241;29;20133;-83
2022/09/04 00:05:03;;;;;;;4.28;2.33;;;17.40;95.30;;;;;;4792002;29;20089;-83
2022/09/04 00:07:44;;;;;;;6.57;2.50;;;17.30;95.20;;;;;;4808122;29;20141;-83
2022/09/04 00:10:39;;;;;;;6.90;2.70;;;17.30;95.20;;;;;;4792019;29;20065;-83
2022/09/04 00:13:16;;;;;;;4.15;2.28;;;17.30;95.40;;;;;;4792144;29;20162;-85
2022/09/04 00:16:05;;;;;;;6.15;2.60;;;17.30;95.50;;;;;;4808076;29;20055;-83
2022/09/04 00:18:36;;;;;;;5.25;2.20;;;17.20;95.40;;;;;;4791788;29;20469;-82
2022/09/04 00:21:27;;;;;;;5.75;2.58;;;17.20;95.30;;;;;;4791493;29;20507;-83
2022/09/04 00:23:57;;;;;;;5.50;2.40;;;17.10;95.50;;;;;;4807884;29;20051;-84
2022/09/04 00:26:26;;;;;;;4.72;2.40;;;17.20;95.30;;;;;;4791510;29;20055;-82
2022/09/04 00:29:02;;;;;;;4.30;2.33;;;17.20;95.40;;;;;;4791736;29;20080;-82
2022/09/04 00:31:37;;;;;;;4.32;2.30;;;17.10;95.40;;;;;;4791463;29;20047;-85
2022/09/04 00:34:23;;;;;;;5.68;2.50;;;17.00;95.50;;;;;;4791316;29;20054;-82
2022/09/04 00:36:54;;;;;;;4.65;2.28;;;17.00;95.60;;;;;;4791380;29;20062;-83
2022/09/04 00:39:29;;;;;;;6.28;2.38;;;17.00;95.70;;;;;;4791338;29;20073;-83
2022/09/04 00:42:17;;;;;;;4.70;2.15;;;16.90;95.70;;;;;;4791112;29;20054;-82
2022/09/04 00:45:03;;;;;;;5.13;2.72;;;16.90;95.60;;;;;;4791238;29;20099;-83
2022/09/04 00:47:56;;;;;;;4.05;2.38;;;16.90;95.60;;;;;;4791200;29;20062;-83
2022/09/04 00:50:27;;;;;;;3.47;2.05;;;16.80;96.00;;;;;;4790977;29;20500;-83
2022/09/04 00:53:41;;;;;;;4.05;2.30;;;16.80;95.80;;;;;;4791083;29;20051;-84
2022/09/04 00:56:44;;;;;;;7.82;2.63;;;16.70;96.00;;;;;;4759083;29;20068;-83
2022/09/04 00:59:32;;;;;;;3.47;2.45;;;16.70;95.90;;;;;;4790818;29;20142;-84
2022/09/04 01:02:30;;;;;;;4.70;2.50;;;16.70;95.90;;;;;;4791167;29;20054;-83
2022/09/04 01:05:37;;;;;;;5.35;2.33;;;16.60;96.20;;;;;;4790456;29;20066;-82
2022/09/04 01:08:24;;;;;;;5.28;2.70;;;16.60;96.10;;;;;;4791040;29;20051;-82
2022/09/04 01:11:01;;;;;;;7.22;3.47;;;16.60;96.30;;;;;;4790558;29;20063;-83
2022/09/04 01:13:35;;;;;;;6.25;2.53;;;16.60;96.10;;;;;;4790563;29;20042;-83
2022/09/04 01:16:25;;;;;;;8.10;2.75;;;16.60;96.10;;;;;;4790912;29;20059;-83
2022/09/04 01:19:22;;;;;;;5.68;2.67;;;16.60;96.20;;;;;;4790741;29;20050;-83
2022/09/04 01:22:34;;;;;;;4.97;2.80;;;16.50;96.30;;;;;;4790744;29;20055;-83
2022/09/04 01:25:22;;;;;;;4.95;2.60;;;16.50;96.30;;;;;;4790625;29;20499;-84
2022/09/04 01:28:13;;;;;;;5.05;2.63;;;16.50;96.60;;;;;;4806484;29;20434;-85
2022/09/04 01:30:56;;;;;;;5.80;2.75;;;16.40;96.50;;;;;;4806750;29;20054;-83
2022/09/04 01:33:33;;;;;;;4.65;2.88;;;16.30;96.90;;;;;;4790831;29;20176;-83
2022/09/04 01:36:21;;;;;;;4.18;2.25;;;16.30;96.40;;;;;;4790575;29;20058;-84
2022/09/04 01:38:57;;;;;;;4.00;2.58;;;16.30;96.50;;;;;;4790283;29;20490;-83
2022/09/04 01:41:46;;;;;;;5.82;3.20;;;16.20;96.70;;;;;;4790388;29;20047;-84
2022/09/04 01:44:11;;;;;;;7.47;2.95;;;16.30;96.70;;;;;;4790113;29;20055;-82
2022/09/04 01:46:40;;;;;;;4.85;2.65;;;16.20;97.10;;;;;;4790190;29;20099;-83
2022/09/04 01:49:09;;;;;;;5.63;2.50;;;16.20;96.90;;;;;;4790238;29;20559;-84
2022/09/04 01:51:46;;;;;;;6.43;2.85;;;16.20;96.90;;;;;;4790211;29;20067;-83
2022/09/04 01:54:51;;;;;;;6.47;2.42;;;16.20;96.90;;;;;;4790328;29;20078;-83
2022/09/04 01:57:50;;;;;;;4.40;2.70;;;16.10;97.30;;;;;;4790062;29;20072;-83
2022/09/04 02:00:22;;;;;;;5.40;3.22;;;16.10;97.10;;;;;;4782256;29;20054;-82
2022/09/04 02:02:53;;;;;;;4.40;2.72;;;16.10;96.90;;;;;;4790097;29;20513;-82
2022/09/04 02:05:35;;;;;;;7.95;3.25;;;16.10;97.00;;;;;;4790237;29;20107;-84
2022/09/04 02:08:22;;;;;;;5.75;2.72;;;16.10;97.10;;;;;;4790167;29;20062;-83
2022/09/04 02:10:57;;;;;;;5.03;3.00;;;16.20;96.90;;;;;;4790050;29;20054;-84
2022/09/04 02:13:42;;;;;;;5.22;2.60;;;16.10;96.80;;;;;;4789967;29;20142;-84
2022/09/04 02:16:25;;;;;;;4.90;2.70;;;16.10;96.80;;;;;;4790028;29;20475;-83
2022/09/04 02:19:15;;;;;;;5.97;3.08;;;16.10;97.00;;;;;;4806248;29;20112;-84
2022/09/04 02:21:55;;;;;;;5.38;3.13;;;16.00;97.50;;;;;;4789862;29;20407;-83
2022/09/04 02:24:29;;;;;;;4.90;3.35;;;15.90;97.20;;;;;;4793109;29;20099;-84
2022/09/04 02:27:07;;;;;;;4.68;2.80;;;15.90;97.30;;;;;;4793452;29;20503;-85
2022/09/04 02:29:39;;;;;;;4.45;2.50;;;15.90;97.30;;;;;;4793799;29;20125;-85
2022/09/04 02:32:19;;;;;;;5.32;2.83;;;15.90;97.60;;;;;;4793583;29;20047;-84
2022/09/04 02:34:54;;;;;;;4.15;2.88;;;15.80;97.70;;;;;;4793603;29;20138;-83
2022/09/04 02:37:32;;;;;;;4.32;2.63;;;15.90;97.40;;;;;;4793370;29;20050;-83
2022/09/04 02:40:08;;;;;;;6.63;2.83;;;15.90;97.50;;;;;;4793276;29;20130;-81
2022/09/04 02:42:58;;;;;;;3.75;2.60;;;15.80;97.90;;;;;;4809401;29;20047;-83
2022/09/04 02:46:12;;;;;;;5.40;2.78;;;15.80;97.70;;;;;;4809772;29;20063;-83
2022/09/04 02:48:56;;;;;;;6.00;3.10;;;15.70;97.80;;;;;;4785561;29;20062;-82
2022/09/04 02:51:49;;;;;;;6.50;3.13;;;15.70;98.00;;;;;;4793104;29;20062;-82
2022/09/04 02:54:57;;;;;;;5.60;2.92;;;15.70;97.70;;;;;;4793410;29;20050;-82
2022/09/04 02:57:49;;;;;;;7.10;3.00;;;15.70;97.70;;;;;;4783111;29;20503;-84
2022/09/04 03:00:18;;;;;;;5.28;2.90;;;15.60;98.30;;;;;;4793001;29;20057;-83
2022/09/04 03:03:00;;;;;;;6.90;3.10;;;15.60;97.90;;;;;;4792886;29;20110;-83
2022/09/04 03:05:30;;;;;;;7.05;3.10;;;15.60;98.10;;;;;;4793005;29;20047;-82
2022/09/04 03:08:06;;;;;;;5.18;3.13;;;15.60;97.80;;;;;;4792763;29;20510;-83
2022/09/04 03:11:03;;;;;;;6.72;3.28;;;15.60;98.20;;;;;;4792666;29;20059;-84
2022/09/04 03:13:40;;;;;;;7.45;3.13;;;15.60;98.20;;;;;;4789823;29;20525;-84
2022/09/04 03:16:18;;;;;;;5.60;3.00;;;15.50;98.00;;;;;;4792664;29;20086;-82
2022/09/04 03:19:14;;;;;;;11.40;3.00;;;15.60;98.40;;;;;;4792587;29;20058;-84
2022/09/04 03:21:52;;;;;;;5.80;3.55;;;15.60;98.00;;;;;;4792875;29;20058;-83
2022/09/04 03:24:33;;;;;;;4.60;3.08;;;15.50;98.30;;;;;;4792709;29;20050;-82
2022/09/04 03:27:10;;;;;;;8.32;3.38;;;15.50;98.20;;;;;;4808593;29;20520;-84
2022/09/04 03:29:54;;;;;;;6.80;3.35;;;15.40;99.10;;;;;;4792699;29;20127;-84
2022/09/04 03:32:35;;;;;;;7.13;3.28;;;15.50;98.30;;;;;;4792437;29;20057;-84
2022/09/04 03:35:24;;;;;;;6.82;3.00;;;15.40;98.40;;;;;;4792078;29;20066;-84
2022/09/04 03:37:53;;;;;;;6.45;3.47;;;15.40;98.50;;;;;;4792491;29;20492;-83
2022/09/04 03:40:41;;;;;;;4.88;3.60;;;15.40;98.50;;;;;;4792296;29;20062;-83
2022/09/04 03:43:16;;;;;;;7.70;3.60;;;15.40;98.60;;;;;;4808390;29;20126;-83
2022/09/04 03:46:06;;;;;;;8.20;3.35;;;15.20;99.00;;;;;;4808563;29;20058;-85
2022/09/04 03:48:50;;;;;;;5.40;3.17;;;15.20;99.00;;;;;;4792210;29;20101;-83
2022/09/04 03:51:27;;;;;;;6.88;3.47;;;15.20;99.20;;;;;;4792372;29;20141;-84
2022/09/04 03:54:27;;;;;;;8.43;3.63;;;15.30;98.60;;;;;;4808448;29;20111;-82
2022/09/04 03:57:20;;;;;;;7.53;3.88;;;15.30;98.70;;;;;;4808197;29;20047;-83
2022/09/04 04:00:11;;;;;;;7.72;3.47;;;15.30;98.60;;;;;;4791850;29;20115;-84
2022/09/04 04:03:00;;;;;;;7.30;3.70;;;15.20;99.20;;;;;;4791941;29;20058;-83
2022/09/04 04:05:37;;;;;;;6.40;3.53;;;15.10;99.00;;;;;;4775270;29;20471;-83
2022/09/04 04:08:16;;;;;;;9.57;3.55;;;15.10;99.10;;;;;;4808130;29;20057;-84
2022/09/04 04:11:14;;;;;;;5.55;3.75;;;15.00;99.60;;;;;;4791732;29;20061;-82
2022/09/04 04:14:18;;;;;;;5.90;3.33;;;15.10;99.10;;;;;;4808106;29;20063;-85
2022/09/04 04:17:19;;;;;;;5.13;3.28;;;15.10;99.10;;;;;;4791817;29;20548;-84
2022/09/04 04:20:01;;;;;;;9.32;3.90;;;15.00;99.70;;;;;;4791583;29;20066;-84
2022/09/04 04:22:46;;;;;;;6.43;3.50;;;14.90;99.80;;;;;;4791707;29;20134;-83
2022/09/04 04:25:23;;;;;;;5.68;3.70;;;15.00;99.80;;;;;;4791389;29;20503;-83
2022/09/04 04:28:23;;;;;;;8.50;3.70;;;14.90;99.80;;;;;;4791627;29;20059;-82
2022/09/04 04:30:51;;;;;;;7.30;3.17;;;14.90;99.90;;;;;;4791718;29;20089;-83
2022/09/04 04:33:40;;;;;;;8.25;3.90;;;14.90;99.70;;;;;;4807636;29;20055;-84
2022/09/04 04:36:33;;;;;;;7.13;3.92;;;14.90;99.90;;;;;;4791628;29;20058;-84
2022/09/04 04:39:04;;;;;;;5.68;3.75;;;14.90;99.90;;;;;;4791241;29;20063;-82
2022/09/04 04:42:04;;;;;;;7.22;4.20;;;14.90;99.50;;;;;;4790590;29;20058;-84
2022/09/04 04:47:51;;;;;;;7.20;4.05;;;14.90;99.90;;;;;;4790996;29;20059;-83
2022/09/04 04:50:56;;;;;;;7.40;3.53;;;14.90;99.90;;;;;;4791155;29;20073;-83
2022/09/04 04:53:46;;;;;;;6.63;4.00;;;15.00;99.90;;;;;;4790747;29;20157;-82
2022/09/04 04:56:57;;;;;;;5.85;4.05;;;14.90;99.90;;;;;;4807054;29;20058;-83
2022/09/04 04:59:42;;;;;;;6.20;4.03;;;14.90;99.90;;;;;;4807120;29;20061;-83
2022/09/04 05:02:20;;;;;;;7.97;4.15;;;14.90;99.90;;;;;;4791010;29;20082;-83
2022/09/04 05:05:39;;;;;;;7.93;3.53;;;14.80;99.90;;;;;;4790967;29;20110;-83
2022/09/04 05:08:32;;;;;;;5.85;3.75;;;14.90;99.90;;;;;;4770659;29;20163;-84
2022/09/04 05:11:08;;;;;;;4.88;3.70;;;14.90;99.90;;;;;;4807056;29;20054;-83
2022/09/04 05:13:58;;;;;;;8.32;3.78;;;14.80;99.90;;;;;;4790525;29;20153;-83
2022/09/04 05:16:51;;;;;;;10.35;4.30;;;14.80;99.90;;;;;;4790638;29;20483;-84
2022/09/04 05:19:52;;;;;;;6.43;3.97;;;14.80;99.90;;;;;;4790448;29;20138;-84
2022/09/04 05:22:21;;;;;;;7.43;4.50;;;14.80;99.90;;;;;;4790622;29;20539;-84
2022/09/04 05:24:59;;;;;;;6.45;3.65;;;14.80;99.90;;;;;;4790368;29;20436;-83
2022/09/04 05:27:38;;;;;;;7.47;4.45;;;14.80;99.90;;;;;;4790625;29;20051;-83
2022/09/04 05:30:22;;;;;;;8.18;4.22;;;14.80;99.90;;;;;;4790446;29;20558;-83
2022/09/04 05:32:56;;;;;;;6.13;4.18;;;14.80;99.90;;;;;;4806462;29;20086;-83
2022/09/04 05:35:32;;;;;;;8.77;4.97;;;14.90;99.90;;;;;;4790501;29;20058;-83
2022/09/04 05:38:01;;;;;;;7.80;4.22;;;15.00;99.90;;;;;;4790082;29;20051;-83
2022/09/04 05:40:54;;;;;;;7.20;3.78;;;15.00;99.90;;;;;;4790345;29;20575;-83
2022/09/04 05:43:58;;;;;;;6.93;4.03;;;15.00;99.90;;;;;;4790185;29;20058;-83
2022/09/04 05:46:38;;;;;;;7.25;3.75;;;15.10;99.90;;;;;;4806573;29;20058;-83
2022/09/04 05:49:28;;;;;;;7.88;3.92;;;15.10;99.90;;;;;;4806533;29;20046;-82
2022/09/04 05:52:02;;;;;;;8.90;4.57;;;15.20;99.90;;;;;;4789999;29;20089;-83
2022/09/04 05:54:46;;;;;;;7.40;4.38;;;15.30;99.90;;;;;;4790102;29;20411;-83
2022/09/04 05:57:37;;;;;;;6.47;4.30;;;15.40;99.90;;;;;;4790050;29;20051;-85
2022/09/04 06:00:18;;;;;;;10.00;5.10;;;15.40;99.90;;;;;;4789839;29;20059;-83
2022/09/04 06:02:46;;;;;;;10.65;4.43;;;15.50;99.90;;;;;;4790029;29;20054;-83
2022/09/04 06:05:45;;;;;;;6.07;3.80;;;15.60;99.90;;;;;;4806282;29;20051;-83
2022/09/04 06:08:43;;;;;;;5.88;4.03;;;15.70;99.90;;;;;;4784952;29;20066;-83
2022/09/04 06:11:27;;;;;;;6.20;4.20;;;15.80;99.90;;;;;;4790168;29;20051;-84
2022/09/04 06:14:17;;;;;;;6.55;4.15;;;15.90;99.90;;;;;;4789769;29;20055;-82
2022/09/04 06:17:08;;;;;;;9.23;4.90;;;16.00;99.90;;;;;;4789784;29;20058;-82
2022/09/04 06:19:40;;;;;;;9.30;4.93;;;16.10;99.90;;;;;;4789640;29;20051;-84
2022/09/04 06:22:17;;;;;;;12.57;4.40;;;16.20;99.90;;;;;;4789775;29;20106;-83
2022/09/04 06:25:22;;;;;;;7.05;4.00;;;16.20;99.90;;;;;;4789976;29;20054;-83
2022/09/04 06:27:57;;;;;;;8.43;4.35;;;16.30;99.90;;;;;;4789586;29;20050;-84
2022/09/04 06:30:29;;;;;;;5.72;4.20;;;16.30;99.90;;;;;;4790108;29;20123;-83
2022/09/04 06:33:13;;;;;;;8.13;4.20;;;16.30;99.90;;;;;;4806186;29;20042;-84
2022/09/04 06:36:13;;;;;;;9.30;4.40;;;16.40;99.90;;;;;;4790040;29;20058;-84
2022/09/04 06:38:59;;;;;;;6.78;4.13;;;16.50;99.90;;;;;;4789976;29;20093;-84
2022/09/04 06:41:49;;;;;;;7.72;4.25;;;16.40;99.90;;;;;;4789949;29;20062;-82
2022/09/04 06:44:23;;;;;;;6.25;4.20;;;16.50;99.90;;;;;;4789578;29;20135;-82
2022/09/04 06:46:49;;;;;;;8.43;4.30;;;16.70;99.90;;;;;;4789692;29;20507;-83
2022/09/04 06:49:28;;;;;;;8.18;4.68;;;16.90;99.70;;;;;;4790509;29;20055;-86
2022/09/04 06:52:21;;;;;;;7.80;4.28;;;16.90;99.60;;;;;;4790536;29;20047;-84
2022/09/04 06:55:05;;;;;;;7.80;4.80;;;17.10;99.50;;;;;;4789544;29;20066;-86
2022/09/04 06:57:46;;;;;;;8.30;4.80;;;17.10;99.70;;;;;;4789850;29;20411;-85
2022/09/04 07:00:18;;;;;;;6.80;4.22;;;17.30;99.40;;;;;;4789393;29;20515;-85
2022/09/04 07:03:15;;;;;;;7.97;4.45;;;17.50;99.10;;;;;;4789432;29;20046;-86
2022/09/04 07:06:01;;;;;;;6.78;4.53;;;17.60;99.10;;;;;;4789531;29;20098;-83
2022/09/04 07:08:36;;;;;;;8.32;4.97;;;17.70;99.10;;;;;;4806070;29;20186;-84
2022/09/04 07:11:32;;;;;;;6.70;4.47;;;17.80;99.00;;;;;;4792747;29;20054;-84
2022/09/04 07:14:15;;;;;;;6.95;4.25;;;18.00;99.00;;;;;;4792819;29;20551;-83
2022/09/04 07:17:05;;;;;;;7.70;4.70;;;18.10;99.10;;;;;;4808850;29;20059;-84
2022/09/04 07:19:45;;;;;;;7.88;4.30;;;18.10;98.90;;;;;;4792493;29;20051;-84
2022/09/04 07:22:31;;;;;;;7.80;4.82;;;18.20;98.70;;;;;;4792656;29;20066;-83
2022/09/04 07:25:14;;;;;;;8.27;4.80;;;18.10;98.80;;;;;;4777095;29;20101;-83
2022/09/04 07:27:58;;;;;;;8.45;4.80;;;18.00;99.00;;;;;;4792688;29;20510;-84
2022/09/04 07:30:26;;;;;;;10.50;4.68;;;18.10;99.00;;;;;;4792598;29;20059;-84
2022/09/04 07:33:08;;;;;;;6.72;4.20;;;18.20;99.00;;;;;;4792331;29;20054;-83
2022/09/04 07:35:58;;;;;;;6.00;4.10;;;18.40;99.20;;;;;;4792505;29;20057;-86
2022/09/04 07:38:39;;;;;;;9.40;4.22;;;18.50;99.00;;;;;;4783639;30;20056;-83
2022/09/04 07:41:24;;;;;;;5.75;4.20;;;18.60;98.70;;;;;;4774234;30;20491;-83
2022/09/04 07:44:06;;;;;;;8.82;4.75;;;18.70;98.80;;;;;;4773735;30;20415;-83
2022/09/04 07:46:56;;;;;;;7.78;4.10;;;18.80;98.20;;;;;;4790124;29;20530;-83
2022/09/04 07:49:29;;;;;;;7.43;4.38;;;18.80;98.50;;;;;;4773981;30;20051;-82
2022/09/04 07:52:01;;;;;;;12.88;4.82;;;18.90;98.20;;;;;;4774102;30;20055;-82
2022/09/04 07:55:03;;;;;;;7.70;4.57;;;19.00;98.40;;;;;;4774073;30;20059;-82
2022/09/04 07:57:35;;;;;;;7.00;4.70;;;19.10;98.40;;;;;;4768399;30;20086;-83
2022/09/04 08:00:22;;;;;;;8.05;4.90;;;19.20;97.90;;;;;;4773677;30;20086;-84
2022/09/04 08:02:50;;;;;;;7.57;4.53;;;19.30;98.10;;;;;;4773853;30;20123;-84
2022/09/04 08:05:43;;;;;;;7.72;5.03;;;19.30;98.20;;;;;;4781183;29;20483;-83
2022/09/04 08:08:25;;;;;;;9.90;5.15;;;19.30;97.90;;;;;;4791506;29;20552;-84
2022/09/04 08:11:18;;;;;;;9.37;4.47;;;19.30;97.80;;;;;;4807892;29;20061;-83
2022/09/04 08:14:09;;;;;;;7.22;4.63;;;19.40;98.30;;;;;;4791670;29;20861;-83
2022/09/04 08:16:46;;;;;;;7.10;4.32;;;19.50;98.40;;;;;;4791613;29;20070;-83
2022/09/04 08:19:30;;;;;;;7.88;4.53;;;19.60;98.30;;;;;;4783090;29;20115;-82
2022/09/04 08:21:56;;;;;;;7.03;4.65;;;19.70;98.40;;;;;;4772826;30;20055;-81
2022/09/04 08:24:52;;;;;;;7.53;4.10;;;20.00;98.30;;;;;;4773332;30;20077;-83
2022/09/04 08:27:54;;;;;;;7.43;4.45;;;20.00;98.00;;;;;;4773497;30;20059;-83
2022/09/04 08:30:20;;;;;;;8.02;4.82;;;20.10;98.20;;;;;;4774274;29;20062;-82
2022/09/04 08:32:58;;;;;;;9.07;4.20;;;20.20;97.80;;;;;;4789377;30;20062;-82
2022/09/04 08:35:34;;;;;;;6.65;4.72;;;20.40;98.00;;;;;;4773221;30;20051;-81
2022/09/04 08:38:39;;;;;;;6.75;4.10;;;20.60;98.00;;;;;;4772982;30;20142;-81
2022/09/04 08:41:40;;;;;;;7.75;4.47;;;20.70;97.90;;;;;;4753015;30;20069;-84
2022/09/04 08:44:37;;;;;;;7.97;4.53;;;20.70;97.50;;;;;;4781065;30;20051;-82
2022/09/04 08:47:03;;;;;;;12.48;5.40;;;20.80;97.70;;;;;;4773219;30;20063;-81
2022/09/04 08:50:02;;;;;;;7.28;4.30;;;20.90;97.40;;;;;;4773085;30;20057;-81
2022/09/04 08:52:54;;;;;;;6.03;4.40;;;20.90;97.30;;;;;;4772833;30;20458;-83
2022/09/04 08:55:29;;;;;;;9.95;4.20;;;21.10;97.50;;;;;;4772718;30;20062;-82
2022/09/04 08:58:33;;;;;;;5.85;4.63;;;21.10;97.30;;;;;;4788950;29;20074;-83
2022/09/04 09:01:08;;;;;;;6.85;4.55;;;21.30;97.70;;;;;;4772980;30;20059;-83
2022/09/04 09:03:57;;;;;;;9.75;4.45;;;21.40;96.80;;;;;;4772692;30;20059;-82
2022/09/04 09:06:45;;;;;;;8.85;4.55;;;21.50;97.30;;;;;;4760776;30;20067;-83
2022/09/04 09:09:35;;;;;;;6.53;4.15;;;21.60;97.80;;;;;;4772769;30;20062;-82
2022/09/04 09:12:29;;;;;;;8.23;4.55;;;21.90;96.80;;;;;;4772462;30;20055;-83
2022/09/04 09:15:23;;;;;;;9.27;4.78;;;22.00;97.40;;;;;;4788869;30;20051;-82
2022/09/04 09:17:52;;;;;;;7.13;4.15;;;22.00;96.80;;;;;;4772699;30;20047;-83
2022/09/04 09:20:34;;;;;;;8.43;4.53;;;22.10;97.10;;;;;;4770703;30;20059;-83
2022/09/04 09:23:29;;;;;;;10.00;5.05;;;22.20;96.60;;;;;;4770962;30;20108;-81
2022/09/04 09:26:37;;;;;;;7.53;4.20;;;22.20;96.30;;;;;;4788161;30;20134;-83
2022/09/04 09:29:22;;;;;;;5.50;4.10;;;22.30;96.80;;;;;;4717363;30;20052;-83
2022/09/04 09:32:12;;;;;;;7.05;4.00;;;22.50;96.90;;;;;;4784755;30;20071;-83
2022/09/04 09:35:07;;;;;;;6.43;4.53;;;22.60;96.60;;;;;;4772438;30;20053;-83
2022/09/04 09:38:10;;;;;;;7.28;4.20;;;22.60;96.30;;;;;;4788304;29;20063;-81
2022/09/04 09:40:56;;;;;;;7.90;4.28;;;22.70;96.50;;;;;;4788582;30;20047;-93
2022/09/04 09:43:50;;;;;;;8.43;4.03;;;22.80;96.20;;;;;;4772217;30;20575;-90
2022/09/04 09:46:44;;;;;;;7.20;4.20;;;23.00;96.40;;;;;;4772302;30;20136;-89
2022/09/04 09:49:34;;;;;;;8.10;4.07;;;23.10;96.30;;;;;;4771894;30;20055;-85
2022/09/04 09:51:59;;;;;;;5.85;4.00;;;23.20;96.00;;;;;;4772064;30;20057;-86
2022/09/04 09:54:28;;;;;;;6.38;3.80;;;23.40;96.30;;;;;;4772214;30;20057;-89
2022/09/04 09:57:30;;;;;;;6.78;3.60;;;23.40;96.10;;;;;;4772245;30;20408;-94
2022/09/04 10:05:28;;;;;;;5.72;4.13;;;23.80;95.70;;;;;;4805205;29;20495;-89
2022/09/04 10:08:48;;;;;;;7.63;3.60;;;23.90;94.90;;;;;;4789580;29;20418;-89
2022/09/04 10:11:54;;;;;;;5.70;3.47;;;24.10;95.10;;;;;;4790247;29;20058;-87
2022/09/04 10:14:50;;;;;;;5.10;3.55;;;24.30;94.90;;;;;;4789583;29;20062;-86
2022/09/04 10:17:52;;;;;;;4.85;3.35;;;24.30;93.10;;;;;;4806290;29;20122;-88
2022/09/04 10:21:09;;;;;;;6.88;4.03;;;24.40;94.10;;;;;;4789692;29;20525;-87
2022/09/04 10:24:21;;;;;;;6.13;3.42;;;24.40;93.00;;;;;;4758929;29;20411;-89
2022/09/04 10:27:38;;;;;;;5.07;3.72;;;24.40;93.10;;;;;;4790506;29;20127;-89
2022/09/04 10:30:15;;;;;;;4.93;3.30;;;24.50;93.90;;;;;;4789863;29;20063;-89
2022/09/04 10:33:26;;;;;;;7.35;3.42;;;24.40;93.70;;;;;;4789356;29;20130;-86
2022/09/04 10:36:16;;;;;;;6.05;3.15;;;24.50;93.60;;;;;;4805432;29;20069;-85
2022/09/04 10:41:52;;;;;;;7.38;3.00;;;24.70;94.00;;;;;;4789375;29;20062;-90
2022/09/04 10:45:09;;;;;;;8.20;2.90;;;24.90;93.00;;;;;;4807447;29;20440;-87
2022/09/04 10:47:58;;;;;;;6.25;3.25;;;25.00;92.80;;;;;;4778348;29;20093;-88
2022/09/04 10:50:55;;;;;;;5.80;3.20;;;25.00;93.60;;;;;;4793148;29;20054;-91
2022/09/04 10:53:37;;;;;;;6.80;3.10;;;25.10;93.20;;;;;;4782265;29;20066;-94
2022/09/04 10:56:11;;;;;;;6.82;3.50;;;25.30;92.60;;;;;;4794141;29;20050;-84
2022/09/04 10:58:58;;;;;;;6.03;2.95;;;25.30;92.30;;;;;;4867401;24;20512;-87
2022/09/04 11:01:26;;;;;;;9.23;3.15;;;25.30;92.70;;;;;;4791049;30;20066;-86
2022/09/04 11:04:14;;;;;;;4.53;3.10;;;25.50;92.50;;;;;;4774917;30;20488;-84
2022/09/04 11:07:13;;;;;;;4.35;3.10;;;25.70;92.30;;;;;;4774904;30;20055;-83
2022/09/04 11:10:09;;;;;;;5.65;3.13;;;25.70;92.70;;;;;;4791050;30;20051;-84
2022/09/04 11:13:16;;;;;;;5.32;3.20;;;25.80;91.70;;;;;;4790849;30;20047;-84
2022/09/04 11:15:54;;;;;;;6.13;3.03;;;25.70;92.20;;;;;;4778027;30;20055;-83
2022/09/04 11:18:44;;;;;;;5.07;2.90;;;25.90;91.70;;;;;;4774734;30;20047;-83
2022/09/04 11:21:52;;;;;;;4.43;2.90;;;26.00;92.30;;;;;;4774576;30;20453;-85
2022/09/04 11:24:36;;;;;;;4.43;2.90;;;26.00;91.20;;;;;;4774327;30;20168;-85
2022/09/04 11:27:19;;;;;;;8.63;3.00;;;25.80;90.90;;;;;;4774704;30;20055;-85
2022/09/04 11:30:18;;;;;;;4.93;3.22;;;26.00;91.60;;;;;;4790642;30;20059;-82
2022/09/04 11:32:59;;;;;;;6.28;3.17;;;25.80;90.60;;;;;;4774509;30;20108;-83
2022/09/04 11:35:37;;;;;;;9.27;3.60;;;25.80;90.30;;;;;;4774594;30;20059;-85
2022/09/04 11:38:11;;;;;;;6.40;3.00;;;25.80;91.20;;;;;;4774468;30;20448;-85
2022/09/04 11:41:06;;;;;;;4.20;3.00;;;25.80;91.30;;;;;;4774163;30;20495;-83
2022/09/04 11:43:45;;;;;;;8.25;3.15;;;25.90;91.80;;;;;;4774554;30;20130;-84
2022/09/04 11:46:30;;;;;;;6.57;3.28;;;26.10;91.10;;;;;;4774216;30;20499;-86
2022/09/04 11:49:30;;;;;;;10.27;3.47;;;26.20;90.40;;;;;;4774398;30;20519;-85
2022/09/04 11:52:19;;;;;;;4.50;3.50;;;26.20;90.40;;;;;;4774402;30;20055;-84
2022/09/04 11:55:00;;;;;;;5.82;3.42;;;26.20;91.00;;;;;;4773972;30;20504;-85
2022/09/04 11:58:00;;;;;;;6.20;3.22;;;26.40;90.40;;;;;;4773945;30;20054;-83
2022/09/04 12:00:46;;;;;;;6.25;3.47;;;26.20;90.50;;;;;;4773948;30;20091;-85
2022/09/04 12:03:50;;;;;;;4.97;3.30;;;26.20;90.70;;;;;;4773975;30;20091;-84
2022/09/04 12:06:43;;;;;;;4.95;3.13;;;26.30;91.00;;;;;;4774441;30;20153;-83
2022/09/04 12:09:18;;;;;;;6.65;3.50;;;26.30;90.40;;;;;;4778152;30;20108;-87
2022/09/04 12:12:19;;;;;;;6.10;3.15;;;26.40;90.70;;;;;;4773914;30;20059;-83
2022/09/04 12:15:04;;;;;;;4.70;3.40;;;26.30;89.40;;;;;;4773870;30;20055;-87
2022/09/04 12:17:57;;;;;;;4.63;3.28;;;26.30;90.10;;;;;;4773878;30;20411;-85
2022/09/04 12:20:35;;;;;;;5.22;2.92;;;26.20;89.90;;;;;;4773469;30;20549;-86
2022/09/04 12:23:22;;;;;;;5.57;3.40;;;26.30;90.50;;;;;;4773553;30;20047;-83
2022/09/04 12:26:06;;;;;;;5.15;3.25;;;26.50;90.60;;;;;;4773694;30;20055;-85
2022/09/04 12:28:59;;;;;;;5.95;3.33;;;26.40;90.50;;;;;;4773298;30;20404;-86
2022/09/04 12:31:50;;;;;;;5.03;3.20;;;26.50;90.60;;;;;;4773419;30;20051;-84
2022/09/04 12:34:37;;;;;;;5.10;3.15;;;26.40;90.30;;;;;;4773360;30;20148;-85
2022/09/04 12:37:18;;;;;;;6.55;3.60;;;26.40;90.20;;;;;;4773475;30;20415;-86
2022/09/04 12:40:21;;;;;;;6.50;3.20;;;26.30;90.40;;;;;;4773327;30;20047;-84
2022/09/04 12:43:08;;;;;;;4.90;3.53;;;26.50;90.70;;;;;;4773474;30;20104;-85
2022/09/04 12:46:11;;;;;;;4.75;3.42;;;26.60;90.50;;;;;;4773443;30;20051;-86
2022/09/04 12:48:55;;;;;;;5.05;3.58;;;26.60;90.10;;;;;;4772954;30;20047;-84
2022/09/04 12:51:25;;;;;;;6.35;3.30;;;26.60;90.70;;;;;;4773195;30;20051;-86
2022/09/04 12:53:59;;;;;;;5.88;3.85;;;26.80;90.70;;;;;;4772901;30;20610;-85
2022/09/04 12:56:44;;;;;;;5.38;3.38;;;26.80;90.40;;;;;;4773031;30;20130;-85
2022/09/04 12:59:35;;;;;;;5.95;3.70;;;26.90;90.70;;;;;;4772531;30;20070;-85
2022/09/04 13:02:22;;;;;;;6.55;3.42;;;27.00;89.70;;;;;;4772782;30;20059;-84
2022/09/04 13:04:54;;;;;;;8.00;3.97;;;26.70;90.40;;;;;;4773019;30;20054;-87
2022/09/04 13:07:26;;;;;;;6.70;3.53;;;26.70;90.20;;;;;;4788226;29;20521;-84
2022/09/04 13:10:18;;;;;;;6.88;3.58;;;26.80;89.30;;;;;;4789029;30;20073;-86
2022/09/04 13:12:47;;;;;;;6.03;4.05;;;26.80;90.60;;;;;;4772909;30;20404;-86
2022/09/04 13:15:34;;;;;;;6.63;3.90;;;26.90;90.40;;;;;;4773120;30;20136;-86
2022/09/04 13:18:05;;;;;;;5.82;3.78;;;26.90;88.80;;;;;;4788959;30;20051;-87
2022/09/04 13:20:49;;;;;;;10.40;4.00;;;27.00;90.50;;;;;;4788903;30;20097;-86
2022/09/04 13:23:42;;;;;;;9.23;3.83;;;27.00;90.40;;;;;;4772584;30;20089;-87
2022/09/04 13:26:35;;;;;;;5.43;4.10;;;27.10;90.00;;;;;;4772992;30;20053;-86
2022/09/04 13:29:46;;;;;;;7.93;3.90;;;27.20;90.00;;;;;;4772855;30;20062;-84
2022/09/04 13:32:42;;;;;;;6.72;4.05;;;27.30;89.40;;;;;;4736118;30;20056;-90
2022/09/04 13:35:46;;;;;;;7.05;3.40;;;27.40;89.30;;;;;;4736228;30;20060;-89
2022/09/04 13:39:00;;;;;;;11.52;3.75;;;27.30;90.10;;;;;;4771551;30;20060;-87
2022/09/04 13:41:59;;;;;;;7.38;3.85;;;27.30;89.40;;;;;;4755714;30;20146;-88
2022/09/04 13:45:04;;;;;;;7.18;4.00;;;27.40;88.40;;;;;;4772468;30;20129;-87
2022/09/04 13:47:48;;;;;;;9.50;4.82;;;27.30;88.80;;;;;;4772097;30;20419;-89
2022/09/04 13:50:24;;;;;;;7.13;4.00;;;27.10;88.90;;;;;;4772107;30;20039;-84
2022/09/04 13:52:58;;;;;;;5.70;3.80;;;27.10;90.00;;;;;;4788225;30;20043;-86
2022/09/04 13:55:41;;;;;;;6.43;4.00;;;27.20;89.50;;;;;;4788350;30;20116;-88
2022/09/04 13:58:15;;;;;;;5.40;4.22;;;27.00;89.40;;;;;;4771927;30;20059;-88
2022/09/04 14:00:53;;;;;;;5.10;3.97;;;27.10;90.00;;;;;;4788310;30;20154;-87
2022/09/04 14:03:44;;;;;;;6.30;4.03;;;27.10;88.80;;;;;;4772045;30;20514;-85
2022/09/04 14:06:13;;;;;;;5.63;4.20;;;27.10;90.00;;;;;;4782970;30;20431;-89
2022/09/04 14:08:42;;;;;;;6.88;4.53;;;27.10;89.50;;;;;;4788265;30;20396;-86
2022/09/04 14:11:18;;;;;;;5.97;4.00;;;27.10;90.10;;;;;;4772180;30;20492;-86
2022/09/04 14:14:21;;;;;;;7.18;4.50;;;27.10;90.20;;;;;;4772162;30;20047;-86
2022/09/04 14:16:49;;;;;;;7.53;4.20;;;27.10;89.80;;;;;;4771999;30;20055;-86
2022/09/04 14:19:36;;;;;;;7.45;4.32;;;27.10;90.00;;;;;;4791424;29;20047;-87
2022/09/04 14:22:16;;;;;;;5.63;3.75;;;27.10;89.90;;;;;;4775734;30;20522;-88
2022/09/04 14:25:03;;;;;;;5.93;3.97;;;27.10;87.70;;;;;;4775534;30;20051;-87
2022/09/04 14:27:58;;;;;;;6.18;4.18;;;26.90;88.40;;;;;;4775829;30;20090;-85
2022/09/04 14:30:23;;;;;;;9.25;4.20;;;27.00;89.70;;;;;;4770395;30;20059;-86
2022/09/04 14:33:17;;;;;;;7.00;3.75;;;27.00;90.00;;;;;;4791805;30;20061;-89
2022/09/04 14:36:11;;;;;;;8.82;4.03;;;26.90;89.90;;;;;;4775558;30;20488;-88